sensor_id;sensor_type;location;lat;lon;timestamp;P1;durP1;ratioP1;P2;durP2;ratioP2
14181;SDS011;7171;50.936;6.764;2023-11-21T00:00:19;5.17;;;3.33;;
14181;SDS011;7171;50.936;6.764;2023-11-21T00:02:48;5.80;;;3.67;;
14181;SDS011;7171;50.936;6.764;2023-11-21T00:05:14;5.20;;;3.70;;
14181;SDS011;7171;50.936;6.764;2023-11-21T00:07:41;7.17;;;3.63;;
14181;SDS011;7171;50.936;6.764;2023-11-21T00:10:09;10.00;;;3.33;;
14181;SDS011;7171;50.936;6.764;2023-11-21T00:12:37;6.73;;;4.00;;
14181;SDS011;7171;50.936;6.764;2023-11-21T00:15:05;7.43;;;4.37;;
14181;SDS011;7171;50.936;6.764;2023-11-21T00:17:34;8.83;;;4.37;;
14181;SDS011;7171;50.936;6.764;2023-11-21T00:20:02;8.77;;;4.80;;
14181;SDS011;7171;50.936;6.764;2023-11-21T00:22:31;8.37;;;5.10;;
14181;SDS011;7171;50.936;6.764;2023-11-21T00:24:58;4.90;;;3.92;;
14181;SDS011;7171;50.936;6.764;2023-11-21T00:27:25;7.40;;;4.47;;
14181;SDS011;7171;50.936;6.764;2023-11-21T00:29:52;5.17;;;3.43;;
14181;SDS011;7171;50.936;6.764;2023-11-21T00:32:18;8.97;;;4.07;;
14181;SDS011;7171;50.936;6.764;2023-11-21T00:34:45;7.77;;;4.53;;
14181;SDS011;7171;50.936;6.764;2023-11-21T00:37:13;10.20;;;4.53;;
14181;SDS011;7171;50.936;6.764;2023-11-21T00:39:40;6.63;;;3.63;;
14181;SDS011;7171;50.936;6.764;2023-11-21T00:42:07;6.27;;;3.60;;
14181;SDS011;7171;50.936;6.764;2023-11-21T00:44:37;11.10;;;3.93;;
14181;SDS011;7171;50.936;6.764;2023-11-21T00:47:04;7.63;;;4.63;;
14181;SDS011;7171;50.936;6.764;2023-11-21T00:49:30;4.73;;;4.03;;
14181;SDS011;7171;50.936;6.764;2023-11-21T00:51:58;8.47;;;3.87;;
14181;SDS011;7171;50.936;6.764;2023-11-21T00:54:26;4.70;;;3.20;;
14181;SDS011;7171;50.936;6.764;2023-11-21T00:56:53;6.40;;;4.03;;
14181;SDS011;7171;50.936;6.764;2023-11-21T00:59:20;7.07;;;4.10;;
14181;SDS011;7171;50.936;6.764;2023-11-21T01:01:48;10.23;;;4.17;;
14181;SDS011;7171;50.936;6.764;2023-11-21T01:04:14;9.67;;;5.33;;
14181;SDS011;7171;50.936;6.764;2023-11-21T01:06:41;6.23;;;4.40;;
14181;SDS011;7171;50.936;6.764;2023-11-21T01:09:08;10.23;;;4.97;;
14181;SDS011;7171;50.936;6.764;2023-11-21T01:11:36;9.00;;;4.27;;
14181;SDS011;7171;50.936;6.764;2023-11-21T01:14:04;9.43;;;5.03;;
14181;SDS011;7171;50.936;6.764;2023-11-21T01:16:31;8.40;;;5.23;;
14181;SDS011;7171;50.936;6.764;2023-11-21T01:18:58;11.03;;;5.07;;
14181;SDS011;7171;50.936;6.764;2023-11-21T01:21:25;10.77;;;5.00;;
14181;SDS011;7171;50.936;6.764;2023-11-21T01:23:53;8.07;;;4.70;;
14181;SDS011;7171;50.936;6.764;2023-11-21T01:26:19;10.87;;;5.40;;
14181;SDS011;7171;50.936;6.764;2023-11-21T01:28:47;6.53;;;4.07;;
14181;SDS011;7171;50.936;6.764;2023-11-21T01:31:15;6.67;;;4.00;;
14181;SDS011;7171;50.936;6.764;2023-11-21T01:33:41;7.17;;;5.10;;
14181;SDS011;7171;50.936;6.764;2023-11-21T01:36:09;8.90;;;4.60;;
14181;SDS011;7171;50.936;6.764;2023-11-21T01:38:36;8.87;;;5.50;;
14181;SDS011;7171;50.936;6.764;2023-11-21T01:41:03;7.67;;;5.50;;
14181;SDS011;7171;50.936;6.764;2023-11-21T01:43:31;7.67;;;4.50;;
14181;SDS011;7171;50.936;6.764;2023-11-21T01:45:59;7.83;;;4.70;;
14181;SDS011;7171;50.936;6.764;2023-11-21T01:48:26;7.10;;;4.07;;
14181;SDS011;7171;50.936;6.764;2023-11-21T01:50:54;8.73;;;4.83;;
14181;SDS011;7171;50.936;6.764;2023-11-21T01:53:23;13.40;;;4.90;;
14181;SDS011;7171;50.936;6.764;2023-11-21T01:55:51;7.40;;;4.03;;
14181;SDS011;7171;50.936;6.764;2023-11-21T01:58:19;8.13;;;4.60;;
14181;SDS011;7171;50.936;6.764;2023-11-21T02:00:46;10.37;;;4.33;;
14181;SDS011;7171;50.936;6.764;2023-11-21T02:03:17;7.20;;;3.83;;
14181;SDS011;7171;50.936;6.764;2023-11-21T02:05:43;8.13;;;4.33;;
14181;SDS011;7171;50.936;6.764;2023-11-21T02:08:10;6.63;;;4.27;;
14181;SDS011;7171;50.936;6.764;2023-11-21T02:10:37;6.87;;;3.40;;
14181;SDS011;7171;50.936;6.764;2023-11-21T02:13:04;8.13;;;4.60;;
14181;SDS011;7171;50.936;6.764;2023-11-21T02:15:31;5.63;;;3.53;;
14181;SDS011;7171;50.936;6.764;2023-11-21T02:17:58;5.13;;;3.80;;
14181;SDS011;7171;50.936;6.764;2023-11-21T02:20:27;7.57;;;3.53;;
14181;SDS011;7171;50.936;6.764;2023-11-21T02:22:56;4.47;;;2.33;;
14181;SDS011;7171;50.936;6.764;2023-11-21T02:25:24;12.00;;;3.30;;
14181;SDS011;7171;50.936;6.764;2023-11-21T02:27:52;3.83;;;2.63;;
14181;SDS011;7171;50.936;6.764;2023-11-21T02:30:20;8.87;;;4.03;;
14181;SDS011;7171;50.936;6.764;2023-11-21T02:32:46;5.13;;;2.50;;
14181;SDS011;7171;50.936;6.764;2023-11-21T02:35:13;8.13;;;3.57;;
14181;SDS011;7171;50.936;6.764;2023-11-21T02:37:40;9.47;;;3.37;;
14181;SDS011;7171;50.936;6.764;2023-11-21T02:40:10;4.87;;;3.23;;
14181;SDS011;7171;50.936;6.764;2023-11-21T02:42:38;3.00;;;2.47;;
14181;SDS011;7171;50.936;6.764;2023-11-21T02:45:06;4.37;;;3.03;;
14181;SDS011;7171;50.936;6.764;2023-11-21T02:47:33;9.00;;;2.63;;
14181;SDS011;7171;50.936;6.764;2023-11-21T02:50:00;3.63;;;2.43;;
14181;SDS011;7171;50.936;6.764;2023-11-21T02:52:26;4.80;;;2.17;;
14181;SDS011;7171;50.936;6.764;2023-11-21T02:54:53;2.40;;;2.20;;
14181;SDS011;7171;50.936;6.764;2023-11-21T02:57:21;3.90;;;2.43;;
14181;SDS011;7171;50.936;6.764;2023-11-21T02:59:48;3.90;;;2.60;;
14181;SDS011;7171;50.936;6.764;2023-11-21T03:02:15;4.23;;;2.33;;
14181;SDS011;7171;50.936;6.764;2023-11-21T03:04:42;3.83;;;2.50;;
14181;SDS011;7171;50.936;6.764;2023-11-21T03:07:09;6.53;;;2.37;;
14181;SDS011;7171;50.936;6.764;2023-11-21T03:09:36;4.13;;;2.30;;
14181;SDS011;7171;50.936;6.764;2023-11-21T03:12:03;8.73;;;2.83;;
14181;SDS011;7171;50.936;6.764;2023-11-21T03:14:31;4.13;;;2.83;;
14181;SDS011;7171;50.936;6.764;2023-11-21T03:16:58;3.83;;;2.70;;
14181;SDS011;7171;50.936;6.764;2023-11-21T03:19:25;4.93;;;2.60;;
14181;SDS011;7171;50.936;6.764;2023-11-21T03:21:52;5.77;;;2.83;;
14181;SDS011;7171;50.936;6.764;2023-11-21T03:24:19;3.83;;;2.20;;
14181;SDS011;7171;50.936;6.764;2023-11-21T03:26:47;3.90;;;2.30;;
14181;SDS011;7171;50.936;6.764;2023-11-21T03:29:15;3.70;;;2.00;;
14181;SDS011;7171;50.936;6.764;2023-11-21T03:31:43;7.33;;;3.33;;
14181;SDS011;7171;50.936;6.764;2023-11-21T03:34:14;6.50;;;2.80;;
14181;SDS011;7171;50.936;6.764;2023-11-21T03:36:43;5.53;;;3.40;;
14181;SDS011;7171;50.936;6.764;2023-11-21T03:39:11;4.70;;;2.80;;
14181;SDS011;7171;50.936;6.764;2023-11-21T03:41:38;5.57;;;3.27;;
14181;SDS011;7171;50.936;6.764;2023-11-21T03:44:04;3.63;;;2.50;;
14181;SDS011;7171;50.936;6.764;2023-11-21T03:46:31;4.40;;;2.90;;
14181;SDS011;7171;50.936;6.764;2023-11-21T03:48:59;7.83;;;2.70;;
14181;SDS011;7171;50.936;6.764;2023-11-21T03:51:26;2.50;;;2.20;;
14181;SDS011;7171;50.936;6.764;2023-11-21T03:53:53;3.50;;;2.50;;
14181;SDS011;7171;50.936;6.764;2023-11-21T03:56:20;5.67;;;2.93;;
14181;SDS011;7171;50.936;6.764;2023-11-21T03:58:47;5.17;;;3.17;;
14181;SDS011;7171;50.936;6.764;2023-11-21T04:01:18;4.33;;;2.63;;
14181;SDS011;7171;50.936;6.764;2023-11-21T04:03:47;4.53;;;3.00;;
14181;SDS011;7171;50.936;6.764;2023-11-21T04:06:15;4.93;;;3.10;;
14181;SDS011;7171;50.936;6.764;2023-11-21T04:08:42;4.23;;;3.63;;
14181;SDS011;7171;50.936;6.764;2023-11-21T04:11:09;5.27;;;3.57;;
14181;SDS011;7171;50.936;6.764;2023-11-21T04:13:37;4.27;;;2.90;;
14181;SDS011;7171;50.936;6.764;2023-11-21T04:16:04;7.17;;;4.13;;
14181;SDS011;7171;50.936;6.764;2023-11-21T04:18:32;8.47;;;4.03;;
14181;SDS011;7171;50.936;6.764;2023-11-21T04:20:59;6.93;;;4.00;;
14181;SDS011;7171;50.936;6.764;2023-11-21T04:23:28;10.30;;;4.27;;
14181;SDS011;7171;50.936;6.764;2023-11-21T04:25:55;7.33;;;4.33;;
14181;SDS011;7171;50.936;6.764;2023-11-21T04:28:22;6.13;;;3.30;;
14181;SDS011;7171;50.936;6.764;2023-11-21T04:30:49;10.17;;;3.77;;
14181;SDS011;7171;50.936;6.764;2023-11-21T04:33:15;9.10;;;4.57;;
14181;SDS011;7171;50.936;6.764;2023-11-21T04:35:42;8.97;;;4.40;;
14181;SDS011;7171;50.936;6.764;2023-11-21T04:38:09;13.17;;;4.57;;
14181;SDS011;7171;50.936;6.764;2023-11-21T04:40:37;6.90;;;3.90;;
14181;SDS011;7171;50.936;6.764;2023-11-21T04:43:04;9.23;;;4.10;;
14181;SDS011;7171;50.936;6.764;2023-11-21T04:45:30;12.83;;;4.43;;
14181;SDS011;7171;50.936;6.764;2023-11-21T04:47:57;8.63;;;4.13;;
14181;SDS011;7171;50.936;6.764;2023-11-21T04:50:24;8.57;;;4.50;;
14181;SDS011;7171;50.936;6.764;2023-11-21T04:52:52;6.13;;;3.80;;
14181;SDS011;7171;50.936;6.764;2023-11-21T04:55:18;10.23;;;6.40;;
14181;SDS011;7171;50.936;6.764;2023-11-21T04:57:46;9.10;;;4.67;;
14181;SDS011;7171;50.936;6.764;2023-11-21T05:00:13;7.90;;;3.97;;
14181;SDS011;7171;50.936;6.764;2023-11-21T05:02:41;9.07;;;4.07;;
14181;SDS011;7171;50.936;6.764;2023-11-21T05:05:08;7.50;;;4.60;;
14181;SDS011;7171;50.936;6.764;2023-11-21T05:07:36;7.47;;;4.43;;
14181;SDS011;7171;50.936;6.764;2023-11-21T05:10:03;9.27;;;4.77;;
14181;SDS011;7171;50.936;6.764;2023-11-21T05:12:35;6.37;;;4.87;;
14181;SDS011;7171;50.936;6.764;2023-11-21T05:15:05;14.97;;;5.03;;
14181;SDS011;7171;50.936;6.764;2023-11-21T05:17:34;8.13;;;5.47;;
14181;SDS011;7171;50.936;6.764;2023-11-21T05:20:01;8.47;;;5.17;;
14181;SDS011;7171;50.936;6.764;2023-11-21T05:22:33;7.33;;;4.57;;
14181;SDS011;7171;50.936;6.764;2023-11-21T05:25:00;9.83;;;5.87;;
14181;SDS011;7171;50.936;6.764;2023-11-21T05:27:28;10.23;;;5.57;;
14181;SDS011;7171;50.936;6.764;2023-11-21T05:29:55;7.83;;;3.97;;
14181;SDS011;7171;50.936;6.764;2023-11-21T05:32:24;10.40;;;4.67;;
14181;SDS011;7171;50.936;6.764;2023-11-21T05:34:52;10.47;;;5.63;;
14181;SDS011;7171;50.936;6.764;2023-11-21T05:37:18;7.33;;;4.13;;
14181;SDS011;7171;50.936;6.764;2023-11-21T05:39:45;9.53;;;4.53;;
14181;SDS011;7171;50.936;6.764;2023-11-21T05:42:12;6.80;;;4.00;;
14181;SDS011;7171;50.936;6.764;2023-11-21T05:44:40;9.30;;;4.13;;
14181;SDS011;7171;50.936;6.764;2023-11-21T05:47:09;7.77;;;4.73;;
14181;SDS011;7171;50.936;6.764;2023-11-21T05:49:37;9.00;;;4.63;;
14181;SDS011;7171;50.936;6.764;2023-11-21T05:52:05;20.67;;;5.90;;
14181;SDS011;7171;50.936;6.764;2023-11-21T05:54:32;9.17;;;5.13;;
14181;SDS011;7171;50.936;6.764;2023-11-21T05:56:59;6.60;;;4.17;;
14181;SDS011;7171;50.936;6.764;2023-11-21T05:59:26;6.73;;;4.50;;
14181;SDS011;7171;50.936;6.764;2023-11-21T06:01:52;10.30;;;5.23;;
14181;SDS011;7171;50.936;6.764;2023-11-21T06:04:19;10.57;;;4.77;;
14181;SDS011;7171;50.936;6.764;2023-11-21T06:06:50;11.33;;;5.57;;
14181;SDS011;7171;50.936;6.764;2023-11-21T06:09:17;11.53;;;5.50;;
14181;SDS011;7171;50.936;6.764;2023-11-21T06:11:44;11.57;;;6.13;;
14181;SDS011;7171;50.936;6.764;2023-11-21T06:14:10;9.87;;;4.60;;
14181;SDS011;7171;50.936;6.764;2023-11-21T06:16:37;9.07;;;4.90;;
14181;SDS011;7171;50.936;6.764;2023-11-21T06:19:05;20.67;;;5.93;;
14181;SDS011;7171;50.936;6.764;2023-11-21T06:21:32;10.80;;;5.90;;
14181;SDS011;7171;50.936;6.764;2023-11-21T06:24:00;11.57;;;5.10;;
14181;SDS011;7171;50.936;6.764;2023-11-21T06:26:27;11.00;;;5.83;;
14181;SDS011;7171;50.936;6.764;2023-11-21T06:28:54;7.77;;;4.10;;
14181;SDS011;7171;50.936;6.764;2023-11-21T06:31:22;13.30;;;4.57;;
14181;SDS011;7171;50.936;6.764;2023-11-21T06:33:48;12.23;;;5.27;;
14181;SDS011;7171;50.936;6.764;2023-11-21T06:36:17;12.07;;;5.67;;
14181;SDS011;7171;50.936;6.764;2023-11-21T06:38:43;14.27;;;5.43;;
14181;SDS011;7171;50.936;6.764;2023-11-21T06:41:12;8.23;;;4.93;;
14181;SDS011;7171;50.936;6.764;2023-11-21T06:43:40;11.00;;;5.23;;
14181;SDS011;7171;50.936;6.764;2023-11-21T06:46:10;14.40;;;6.40;;
14181;SDS011;7171;50.936;6.764;2023-11-21T06:48:38;7.70;;;4.83;;
14181;SDS011;7171;50.936;6.764;2023-11-21T06:51:05;13.23;;;5.20;;
14181;SDS011;7171;50.936;6.764;2023-11-21T06:53:32;11.37;;;5.97;;
14181;SDS011;7171;50.936;6.764;2023-11-21T06:55:59;8.07;;;5.43;;
14181;SDS011;7171;50.936;6.764;2023-11-21T06:58:27;10.00;;;5.90;;
14181;SDS011;7171;50.936;6.764;2023-11-21T07:00:54;16.13;;;6.23;;
14181;SDS011;7171;50.936;6.764;2023-11-21T07:03:21;11.30;;;6.50;;
14181;SDS011;7171;50.936;6.764;2023-11-21T07:05:49;11.40;;;5.30;;
14181;SDS011;7171;50.936;6.764;2023-11-21T07:08:16;7.77;;;5.00;;
14181;SDS011;7171;50.936;6.764;2023-11-21T07:10:42;15.17;;;6.20;;
14181;SDS011;7171;50.936;6.764;2023-11-21T07:13:09;14.73;;;6.27;;
14181;SDS011;7171;50.936;6.764;2023-11-21T07:15:38;16.30;;;5.73;;
14181;SDS011;7171;50.936;6.764;2023-11-21T07:18:05;8.20;;;5.50;;
14181;SDS011;7171;50.936;6.764;2023-11-21T07:20:32;11.17;;;4.50;;
14181;SDS011;7171;50.936;6.764;2023-11-21T07:22:59;8.73;;;4.73;;
14181;SDS011;7171;50.936;6.764;2023-11-21T07:25:26;11.47;;;4.53;;
14181;SDS011;7171;50.936;6.764;2023-11-21T07:27:53;14.37;;;5.67;;
14181;SDS011;7171;50.936;6.764;2023-11-21T07:30:20;11.17;;;5.27;;
14181;SDS011;7171;50.936;6.764;2023-11-21T07:32:49;8.93;;;5.60;;
14181;SDS011;7171;50.936;6.764;2023-11-21T07:35:15;18.93;;;7.83;;
14181;SDS011;7171;50.936;6.764;2023-11-21T07:37:42;9.87;;;5.17;;
14181;SDS011;7171;50.936;6.764;2023-11-21T07:40:09;12.53;;;6.10;;
14181;SDS011;7171;50.936;6.764;2023-11-21T07:42:37;14.70;;;6.57;;
14181;SDS011;7171;50.936;6.764;2023-11-21T07:45:04;13.03;;;6.53;;
14181;SDS011;7171;50.936;6.764;2023-11-21T07:47:32;11.77;;;5.97;;
14181;SDS011;7171;50.936;6.764;2023-11-21T07:50:01;11.70;;;5.83;;
14181;SDS011;7171;50.936;6.764;2023-11-21T07:52:29;12.03;;;5.77;;
14181;SDS011;7171;50.936;6.764;2023-11-21T07:54:55;19.40;;;6.20;;
14181;SDS011;7171;50.936;6.764;2023-11-21T07:57:22;10.83;;;6.43;;
14181;SDS011;7171;50.936;6.764;2023-11-21T07:59:49;12.80;;;5.37;;
14181;SDS011;7171;50.936;6.764;2023-11-21T08:02:18;11.53;;;5.10;;
14181;SDS011;7171;50.936;6.764;2023-11-21T08:04:45;11.53;;;6.03;;
14181;SDS011;7171;50.936;6.764;2023-11-21T08:07:15;15.43;;;5.77;;
14181;SDS011;7171;50.936;6.764;2023-11-21T08:09:43;9.03;;;5.00;;
14181;SDS011;7171;50.936;6.764;2023-11-21T08:12:09;11.67;;;5.70;;
14181;SDS011;7171;50.936;6.764;2023-11-21T08:14:36;12.30;;;6.97;;
14181;SDS011;7171;50.936;6.764;2023-11-21T08:17:04;16.87;;;6.00;;
14181;SDS011;7171;50.936;6.764;2023-11-21T08:19:30;13.90;;;6.33;;
14181;SDS011;7171;50.936;6.764;2023-11-21T08:21:58;15.00;;;5.73;;
14181;SDS011;7171;50.936;6.764;2023-11-21T08:24:26;14.53;;;6.53;;
14181;SDS011;7171;50.936;6.764;2023-11-21T08:26:52;9.93;;;5.17;;
14181;SDS011;7171;50.936;6.764;2023-11-21T08:29:19;12.50;;;6.60;;
14181;SDS011;7171;50.936;6.764;2023-11-21T08:31:46;15.63;;;6.47;;
14181;SDS011;7171;50.936;6.764;2023-11-21T08:34:13;27.30;;;7.13;;
14181;SDS011;7171;50.936;6.764;2023-11-21T08:36:41;18.27;;;6.60;;
14181;SDS011;7171;50.936;6.764;2023-11-21T08:39:08;13.27;;;5.30;;
14181;SDS011;7171;50.936;6.764;2023-11-21T08:41:37;12.30;;;6.60;;
14181;SDS011;7171;50.936;6.764;2023-11-21T08:44:03;12.33;;;5.33;;
14181;SDS011;7171;50.936;6.764;2023-11-21T08:46:32;17.53;;;5.40;;
14181;SDS011;7171;50.936;6.764;2023-11-21T08:48:59;7.70;;;4.70;;
14181;SDS011;7171;50.936;6.764;2023-11-21T08:51:26;11.80;;;5.40;;
14181;SDS011;7171;50.936;6.764;2023-11-21T08:53:53;10.60;;;6.37;;
14181;SDS011;7171;50.936;6.764;2023-11-21T08:56:24;13.33;;;5.37;;
14181;SDS011;7171;50.936;6.764;2023-11-21T08:58:52;13.87;;;5.87;;
14181;SDS011;7171;50.936;6.764;2023-11-21T09:01:19;14.87;;;5.33;;
14181;SDS011;7171;50.936;6.764;2023-11-21T09:03:46;10.53;;;5.13;;
14181;SDS011;7171;50.936;6.764;2023-11-21T09:06:13;12.70;;;3.87;;
14181;SDS011;7171;50.936;6.764;2023-11-21T09:08:39;8.70;;;5.03;;
14181;SDS011;7171;50.936;6.764;2023-11-21T09:11:06;10.30;;;4.73;;
14181;SDS011;7171;50.936;6.764;2023-11-21T09:13:34;9.33;;;4.40;;
14181;SDS011;7171;50.936;6.764;2023-11-21T09:16:02;18.53;;;5.63;;
14181;SDS011;7171;50.936;6.764;2023-11-21T09:18:30;11.20;;;5.57;;
14181;SDS011;7171;50.936;6.764;2023-11-21T09:20:57;10.97;;;6.67;;
14181;SDS011;7171;50.936;6.764;2023-11-21T09:23:24;14.47;;;5.17;;
14181;SDS011;7171;50.936;6.764;2023-11-21T09:25:51;12.47;;;5.10;;
14181;SDS011;7171;50.936;6.764;2023-11-21T09:28:21;13.53;;;4.63;;
14181;SDS011;7171;50.936;6.764;2023-11-21T09:30:48;10.23;;;5.10;;
14181;SDS011;7171;50.936;6.764;2023-11-21T09:33:17;13.57;;;5.90;;
14181;SDS011;7171;50.936;6.764;2023-11-21T09:35:44;15.17;;;6.13;;
14181;SDS011;7171;50.936;6.764;2023-11-21T09:38:10;16.57;;;5.67;;
14181;SDS011;7171;50.936;6.764;2023-11-21T09:40:37;14.27;;;5.00;;
14181;SDS011;7171;50.936;6.764;2023-11-21T09:43:05;14.40;;;5.63;;
14181;SDS011;7171;50.936;6.764;2023-11-21T09:45:39;10.83;;;5.37;;
14181;SDS011;7171;50.936;6.764;2023-11-21T09:48:06;10.60;;;5.13;;
14181;SDS011;7171;50.936;6.764;2023-11-21T09:50:39;16.90;;;4.60;;
14181;SDS011;7171;50.936;6.764;2023-11-21T09:53:09;13.70;;;5.57;;
14181;SDS011;7171;50.936;6.764;2023-11-21T09:55:42;14.87;;;6.90;;
14181;SDS011;7171;50.936;6.764;2023-11-21T09:58:10;11.57;;;4.20;;
14181;SDS011;7171;50.936;6.764;2023-11-21T10:00:39;13.77;;;5.60;;
14181;SDS011;7171;50.936;6.764;2023-11-21T10:03:07;15.20;;;5.33;;
14181;SDS011;7171;50.936;6.764;2023-11-21T10:05:34;19.43;;;5.67;;
14181;SDS011;7171;50.936;6.764;2023-11-21T10:08:02;9.53;;;4.63;;
14181;SDS011;7171;50.936;6.764;2023-11-21T10:10:31;11.03;;;5.83;;
14181;SDS011;7171;50.936;6.764;2023-11-21T10:13:01;19.33;;;6.53;;
14181;SDS011;7171;50.936;6.764;2023-11-21T10:15:31;11.47;;;4.90;;
14181;SDS011;7171;50.936;6.764;2023-11-21T10:18:00;12.87;;;5.63;;
14181;SDS011;7171;50.936;6.764;2023-11-21T10:20:29;10.02;;;4.63;;
14181;SDS011;7171;50.936;6.764;2023-11-21T10:22:58;9.15;;;4.10;;
14181;SDS011;7171;50.936;6.764;2023-11-21T10:25:28;14.32;;;4.72;;
14181;SDS011;7171;50.936;6.764;2023-11-21T10:27:57;10.83;;;4.93;;
14181;SDS011;7171;50.936;6.764;2023-11-21T10:30:32;12.40;;;5.47;;
14181;SDS011;7171;50.936;6.764;2023-11-21T10:33:02;18.53;;;5.03;;
14181;SDS011;7171;50.936;6.764;2023-11-21T10:35:39;15.13;;;6.33;;
14181;SDS011;7171;50.936;6.764;2023-11-21T10:38:11;13.13;;;5.13;;
14181;SDS011;7171;50.936;6.764;2023-11-21T10:40:40;18.00;;;5.63;;
14181;SDS011;7171;50.936;6.764;2023-11-21T10:43:07;15.63;;;6.33;;
14181;SDS011;7171;50.936;6.764;2023-11-21T10:45:35;13.57;;;4.83;;
14181;SDS011;7171;50.936;6.764;2023-11-21T10:48:04;15.17;;;4.87;;
14181;SDS011;7171;50.936;6.764;2023-11-21T10:50:32;12.30;;;4.37;;
14181;SDS011;7171;50.936;6.764;2023-11-21T10:53:01;11.37;;;4.80;;
14181;SDS011;7171;50.936;6.764;2023-11-21T10:55:28;14.77;;;5.63;;
14181;SDS011;7171;50.936;6.764;2023-11-21T10:57:58;9.97;;;5.97;;
14181;SDS011;7171;50.936;6.764;2023-11-21T11:00:26;9.87;;;4.80;;
14181;SDS011;7171;50.936;6.764;2023-11-21T11:02:54;11.17;;;6.30;;
14181;SDS011;7171;50.936;6.764;2023-11-21T11:05:21;12.00;;;5.60;;
14181;SDS011;7171;50.936;6.764;2023-11-21T11:07:50;20.70;;;6.17;;
14181;SDS011;7171;50.936;6.764;2023-11-21T11:10:19;11.77;;;4.53;;
14181;SDS011;7171;50.936;6.764;2023-11-21T11:12:48;19.95;;;5.93;;
14181;SDS011;7171;50.936;6.764;2023-11-21T11:15:16;13.57;;;3.92;;
14181;SDS011;7171;50.936;6.764;2023-11-21T11:17:43;11.30;;;5.20;;
14181;SDS011;7171;50.936;6.764;2023-11-21T11:20:12;10.65;;;5.35;;
14181;SDS011;7171;50.936;6.764;2023-11-21T11:22:42;14.20;;;6.30;;
14181;SDS011;7171;50.936;6.764;2023-11-21T11:25:19;10.07;;;5.20;;
14181;SDS011;7171;50.936;6.764;2023-11-21T11:27:54;11.17;;;5.90;;
14181;SDS011;7171;50.936;6.764;2023-11-21T11:30:31;18.70;;;5.47;;
14181;SDS011;7171;50.936;6.764;2023-11-21T11:33:08;10.55;;;5.65;;
14181;SDS011;7171;50.936;6.764;2023-11-21T11:35:42;12.83;;;5.57;;
14181;SDS011;7171;50.936;6.764;2023-11-21T11:38:18;11.45;;;5.00;;
14181;SDS011;7171;50.936;6.764;2023-11-21T11:40:47;7.63;;;4.53;;
14181;SDS011;7171;50.936;6.764;2023-11-21T11:43:16;11.45;;;5.13;;
14181;SDS011;7171;50.936;6.764;2023-11-21T11:45:53;9.25;;;3.35;;
14181;SDS011;7171;50.936;6.764;2023-11-21T11:48:22;7.70;;;3.38;;
14181;SDS011;7171;50.936;6.764;2023-11-21T11:53:40;10.70;;;4.75;;
14181;SDS011;7171;50.936;6.764;2023-11-21T11:56:21;9.63;;;4.53;;
14181;SDS011;7171;50.936;6.764;2023-11-21T11:58:51;12.95;;;3.85;;
14181;SDS011;7171;50.936;6.764;2023-11-21T12:01:20;14.32;;;4.63;;
14181;SDS011;7171;50.936;6.764;2023-11-21T12:06:56;7.80;;;4.07;;
14181;SDS011;7171;50.936;6.764;2023-11-21T12:09:27;10.00;;;4.33;;
14181;SDS011;7171;50.936;6.764;2023-11-21T12:11:55;10.05;;;3.95;;
14181;SDS011;7171;50.936;6.764;2023-11-21T12:14:22;6.97;;;3.67;;
14181;SDS011;7171;50.936;6.764;2023-11-21T12:16:50;9.02;;;3.72;;
14181;SDS011;7171;50.936;6.764;2023-11-21T12:19:18;11.00;;;4.33;;
14181;SDS011;7171;50.936;6.764;2023-11-21T12:21:46;10.18;;;4.40;;
14181;SDS011;7171;50.936;6.764;2023-11-21T12:24:13;10.82;;;3.78;;
14181;SDS011;7171;50.936;6.764;2023-11-21T12:26:41;14.63;;;5.53;;
14181;SDS011;7171;50.936;6.764;2023-11-21T12:29:09;10.90;;;5.07;;
14181;SDS011;7171;50.936;6.764;2023-11-21T12:31:35;8.87;;;5.03;;
14181;SDS011;7171;50.936;6.764;2023-11-21T12:34:04;10.93;;;4.55;;
14181;SDS011;7171;50.936;6.764;2023-11-21T12:36:31;12.37;;;4.50;;
14181;SDS011;7171;50.936;6.764;2023-11-21T12:38:59;11.10;;;4.10;;
14181;SDS011;7171;50.936;6.764;2023-11-21T12:41:27;5.60;;;3.77;;
14181;SDS011;7171;50.936;6.764;2023-11-21T12:43:55;11.70;;;4.28;;
14181;SDS011;7171;50.936;6.764;2023-11-21T12:46:22;12.10;;;4.70;;
14181;SDS011;7171;50.936;6.764;2023-11-21T12:48:51;16.55;;;4.95;;
14181;SDS011;7171;50.936;6.764;2023-11-21T12:51:19;9.53;;;4.17;;
14181;SDS011;7171;50.936;6.764;2023-11-21T12:53:47;7.07;;;3.67;;
14181;SDS011;7171;50.936;6.764;2023-11-21T12:56:14;11.50;;;4.47;;
14181;SDS011;7171;50.936;6.764;2023-11-21T12:58:45;14.67;;;5.53;;
14181;SDS011;7171;50.936;6.764;2023-11-21T13:01:13;14.40;;;5.07;;
14181;SDS011;7171;50.936;6.764;2023-11-21T13:03:45;8.27;;;4.60;;
14181;SDS011;7171;50.936;6.764;2023-11-21T13:06:15;12.93;;;5.40;;
14181;SDS011;7171;50.936;6.764;2023-11-21T13:08:49;7.90;;;5.17;;
14181;SDS011;7171;50.936;6.764;2023-11-21T13:11:16;9.47;;;4.30;;
14181;SDS011;7171;50.936;6.764;2023-11-21T13:13:43;9.93;;;4.63;;
14181;SDS011;7171;50.936;6.764;2023-11-21T13:16:10;10.87;;;5.23;;
14181;SDS011;7171;50.936;6.764;2023-11-21T13:18:38;13.27;;;5.37;;
14181;SDS011;7171;50.936;6.764;2023-11-21T13:21:08;8.60;;;3.90;;
14181;SDS011;7171;50.936;6.764;2023-11-21T13:23:40;7.90;;;3.83;;
14181;SDS011;7171;50.936;6.764;2023-11-21T13:26:07;7.73;;;4.13;;
14181;SDS011;7171;50.936;6.764;2023-11-21T13:28:35;7.43;;;3.50;;
14181;SDS011;7171;50.936;6.764;2023-11-21T13:31:03;8.10;;;3.60;;
14181;SDS011;7171;50.936;6.764;2023-11-21T13:33:36;11.97;;;3.70;;
14181;SDS011;7171;50.936;6.764;2023-11-21T13:36:04;10.93;;;4.47;;
14181;SDS011;7171;50.936;6.764;2023-11-21T13:38:33;9.03;;;4.10;;
14181;SDS011;7171;50.936;6.764;2023-11-21T13:41:02;8.20;;;3.73;;
14181;SDS011;7171;50.936;6.764;2023-11-21T13:43:32;7.57;;;3.65;;
14181;SDS011;7171;50.936;6.764;2023-11-21T13:45:59;11.63;;;4.20;;
14181;SDS011;7171;50.936;6.764;2023-11-21T13:48:29;6.67;;;3.50;;
14181;SDS011;7171;50.936;6.764;2023-11-21T13:51:05;7.32;;;3.33;;
14181;SDS011;7171;50.936;6.764;2023-11-21T13:53:40;11.37;;;3.93;;
14181;SDS011;7171;50.936;6.764;2023-11-21T13:56:09;9.15;;;3.67;;
14181;SDS011;7171;50.936;6.764;2023-11-21T13:58:37;7.53;;;3.07;;
14181;SDS011;7171;50.936;6.764;2023-11-21T14:01:13;9.38;;;3.55;;
14181;SDS011;7171;50.936;6.764;2023-11-21T14:04:06;11.00;;;3.73;;
14181;SDS011;7171;50.936;6.764;2023-11-21T14:06:44;6.13;;;3.40;;
14181;SDS011;7171;50.936;6.764;2023-11-21T14:09:13;6.97;;;3.60;;
14181;SDS011;7171;50.936;6.764;2023-11-21T14:11:48;7.20;;;3.00;;
14181;SDS011;7171;50.936;6.764;2023-11-21T14:14:17;5.40;;;3.47;;
14181;SDS011;7171;50.936;6.764;2023-11-21T14:16:44;13.00;;;3.10;;
14181;SDS011;7171;50.936;6.764;2023-11-21T14:19:10;7.50;;;3.67;;
14181;SDS011;7171;50.936;6.764;2023-11-21T14:21:40;8.45;;;3.35;;
14181;SDS011;7171;50.936;6.764;2023-11-21T14:24:09;5.65;;;2.85;;
14181;SDS011;7171;50.936;6.764;2023-11-21T14:26:37;10.20;;;3.57;;
14181;SDS011;7171;50.936;6.764;2023-11-21T14:29:06;14.73;;;3.70;;
14181;SDS011;7171;50.936;6.764;2023-11-21T14:31:34;6.18;;;4.22;;
14181;SDS011;7171;50.936;6.764;2023-11-21T14:34:01;5.57;;;3.53;;
14181;SDS011;7171;50.936;6.764;2023-11-21T14:36:28;15.43;;;4.45;;
14181;SDS011;7171;50.936;6.764;2023-11-21T14:38:55;7.47;;;3.43;;
14181;SDS011;7171;50.936;6.764;2023-11-21T14:41:21;7.03;;;3.63;;
14181;SDS011;7171;50.936;6.764;2023-11-21T14:43:50;8.10;;;3.55;;
14181;SDS011;7171;50.936;6.764;2023-11-21T14:46:19;8.50;;;4.53;;
14181;SDS011;7171;50.936;6.764;2023-11-21T14:48:46;9.05;;;4.43;;
14181;SDS011;7171;50.936;6.764;2023-11-21T14:51:23;5.95;;;3.60;;
14181;SDS011;7171;50.936;6.764;2023-11-21T14:53:55;8.95;;;4.30;;
14181;SDS011;7171;50.936;6.764;2023-11-21T14:56:31;11.47;;;4.40;;
14181;SDS011;7171;50.936;6.764;2023-11-21T14:58:59;8.25;;;3.70;;
14181;SDS011;7171;50.936;6.764;2023-11-21T15:01:32;10.85;;;4.90;;
14181;SDS011;7171;50.936;6.764;2023-11-21T15:04:09;14.13;;;4.17;;
14181;SDS011;7171;50.936;6.764;2023-11-21T15:06:46;7.20;;;3.75;;